Time;durP1;ratioP1;P1;durP2;ratioP2;P2;SDS_P1;SDS_P2;PMS_P1;PMS_P2;Temp;Humidity;BMP_temperature;BMP_pressure;BME280_temperature;BME280_humidity;BME280_pressure;Samples;Min_cycle;Max_cycle;Signal;HPM_P1;HPM_P2
2021/05/29 00:00:03;;;;;;;3.20;3.00;;;14.00;99.90;;;;;;4994132;28;20573;-65
2021/05/29 00:02:29;;;;;;;3.40;3.10;;;14.00;99.90;;;;;;4994267;28;20597;-65
2021/05/29 00:04:55;;;;;;;3.80;3.50;;;14.00;99.90;;;;;;4994317;28;20661;-65
2021/05/29 00:07:22;;;;;;;3.63;3.43;;;13.90;99.90;;;;;;4994196;28;20597;-64
2021/05/29 00:09:48;;;;;;;4.67;4.20;;;13.80;99.90;;;;;;4993880;28;20569;-66
2021/05/29 00:12:14;;;;;;;5.37;3.63;;;13.70;99.90;;;;;;4993890;28;21162;-65
2021/05/29 00:14:41;;;;;;;3.87;3.50;;;13.70;99.90;;;;;;4993940;28;21168;-65
2021/05/29 00:17:09;;;;;;;4.32;3.90;;;13.70;99.90;;;;;;4993870;28;20593;-66
2021/05/29 00:19:36;;;;;;;4.03;3.63;;;13.60;99.90;;;;;;4995826;28;20210;-65
2021/05/29 00:22:03;;;;;;;4.87;3.83;;;13.60;99.90;;;;;;4998036;28;20196;-65
2021/05/29 00:24:30;;;;;;;5.35;4.38;;;13.50;99.90;;;;;;4997844;28;20641;-65
2021/05/29 00:26:57;;;;;;;7.65;4.85;;;13.50;99.90;;;;;;4997275;28;20557;-65
2021/05/29 00:29:23;;;;;;;4.47;4.27;;;13.50;99.90;;;;;;4997807;28;20203;-65
2021/05/29 00:31:49;;;;;;;3.90;3.60;;;13.50;99.90;;;;;;4997678;28;20632;-66
2021/05/29 00:34:15;;;;;;;5.25;3.97;;;13.50;99.90;;;;;;4997705;28;20206;-66
2021/05/29 00:36:42;;;;;;;3.80;3.60;;;13.50;99.90;;;;;;4997414;28;20216;-66
2021/05/29 00:39:08;;;;;;;4.67;3.67;;;13.50;99.90;;;;;;4997530;28;20590;-66
2021/05/29 00:41:35;;;;;;;7.35;4.25;;;13.40;99.90;;;;;;4997537;28;20614;-65
2021/05/29 00:44:02;;;;;;;3.90;3.60;;;13.40;99.90;;;;;;4997238;28;20285;-66
2021/05/29 00:46:29;;;;;;;3.90;3.60;;;13.40;99.90;;;;;;4997622;28;20618;-65
2021/05/29 00:48:55;;;;;;;3.90;3.60;;;13.30;99.90;;;;;;4997786;28;20199;-66
2021/05/29 00:51:22;;;;;;;6.57;4.40;;;13.30;99.90;;;;;;4997204;28;20202;-65
2021/05/29 00:53:48;;;;;;;4.53;3.55;;;13.30;99.90;;;;;;4997405;28;20207;-65
2021/05/29 00:56:15;;;;;;;8.80;4.00;;;13.20;99.90;;;;;;4997444;28;20217;-66
2021/05/29 00:58:42;;;;;;;4.53;4.13;;;13.20;99.90;;;;;;4997274;28;20205;-66
2021/05/29 01:01:09;;;;;;;5.47;3.50;;;13.30;99.90;;;;;;4996971;28;20195;-66
2021/05/29 01:03:39;;;;;;;4.07;3.78;;;13.30;99.90;;;;;;4996934;28;20674;-65
2021/05/29 01:06:06;;;;;;;5.40;3.95;;;13.20;99.90;;;;;;4997819;28;20190;-66
2021/05/29 01:08:33;;;;;;;4.05;3.75;;;13.10;99.90;;;;;;4996979;28;20222;-66
2021/05/29 01:11:00;;;;;;;4.20;3.80;;;13.00;99.90;;;;;;4995714;28;20233;-65
2021/05/29 01:13:32;;;;;;;3.78;3.42;;;13.00;99.90;;;;;;4997259;28;20191;-65
2021/05/29 01:16:59;;;;;;;3.63;3.20;;;13.00;99.90;;;;;;4995821;28;20738;-65
2021/05/29 01:18:54;;;;;;;3.90;3.55;;;13.00;99.90;;;;;;4984230;28;20214;-65
2021/05/29 01:21:20;;;;;;;4.15;3.83;;;13.00;99.90;;;;;;4997238;28;20654;-65
2021/05/29 01:23:46;;;;;;;4.15;3.60;;;12.90;99.90;;;;;;4997069;28;20230;-66
2021/05/29 01:26:13;;;;;;;4.78;4.10;;;12.90;99.90;;;;;;4997069;28;20606;-65
2021/05/29 01:28:39;;;;;;;4.10;3.65;;;12.90;99.90;;;;;;4996928;28;20563;-65
2021/05/29 01:31:08;;;;;;;4.57;4.20;;;12.80;99.90;;;;;;4996204;28;20194;-65
2021/05/29 01:33:37;;;;;;;4.10;3.70;;;12.80;99.90;;;;;;4996458;28;20286;-65
2021/05/29 01:36:10;;;;;;;3.97;3.45;;;12.70;99.90;;;;;;4996990;28;20215;-65
2021/05/29 01:38:38;;;;;;;3.88;3.42;;;12.70;99.90;;;;;;4996642;28;20214;-66
2021/05/29 01:41:08;;;;;;;3.55;3.25;;;12.60;99.90;;;;;;4996555;28;20249;-64
2021/05/29 01:43:36;;;;;;;4.20;3.90;;;12.50;99.90;;;;;;4996322;28;20245;-64
2021/05/29 01:46:03;;;;;;;4.82;3.95;;;12.50;99.90;;;;;;4996680;28;20198;-64
2021/05/29 01:48:34;;;;;;;6.70;3.70;;;12.50;99.90;;;;;;4996441;28;20672;-64
2021/05/29 01:51:01;;;;;;;4.00;3.65;;;12.30;99.90;;;;;;4996441;28;20251;-64
2021/05/29 01:53:28;;;;;;;4.65;4.35;;;12.30;99.90;;;;;;4996364;28;20207;-64
2021/05/29 01:55:54;;;;;;;3.97;3.65;;;12.20;99.90;;;;;;4996000;28;20218;-64
2021/05/29 01:58:21;;;;;;;3.85;3.58;;;12.20;99.90;;;;;;4995128;28;20218;-64
2021/05/29 02:00:48;;;;;;;4.32;3.95;;;12.10;99.90;;;;;;4995924;28;20206;-64
2021/05/29 02:03:14;;;;;;;8.95;4.20;;;12.10;99.90;;;;;;4995966;28;20196;-64
2021/05/29 02:05:41;;;;;;;5.30;4.32;;;12.00;99.90;;;;;;4996420;28;20291;-65
2021/05/29 02:08:09;;;;;;;4.88;4.05;;;12.10;99.90;;;;;;4996167;28;20218;-65
2021/05/29 02:10:37;;;;;;;4.45;3.95;;;12.00;99.90;;;;;;4996016;28;20195;-65
2021/05/29 02:13:26;;;;;;;5.70;5.07;;;12.10;99.90;;;;;;4996057;28;20289;-65
2021/05/29 02:15:53;;;;;;;5.55;5.05;;;12.00;99.90;;;;;;4995409;28;20211;-65
2021/05/29 02:18:20;;;;;;;5.07;4.65;;;12.10;99.90;;;;;;4995799;28;20278;-65
2021/05/29 02:20:53;;;;;;;4.72;4.22;;;12.10;99.90;;;;;;4995594;28;20229;-65
2021/05/29 02:23:27;;;;;;;5.90;5.10;;;12.00;99.90;;;;;;4995247;28;20232;-65
2021/05/29 02:25:56;;;;;;;5.30;4.90;;;12.00;99.90;;;;;;4995587;28;20182;-65
2021/05/29 02:28:23;;;;;;;5.68;4.95;;;11.90;99.90;;;;;;4995465;28;20823;-65
2021/05/29 02:30:51;;;;;;;5.68;5.07;;;11.90;99.90;;;;;;4995325;28;20210;-65
2021/05/29 02:33:19;;;;;;;6.22;5.72;;;11.80;99.90;;;;;;4995500;28;20557;-65
2021/05/29 02:35:46;;;;;;;4.93;4.43;;;11.80;99.90;;;;;;4995270;28;20226;-65
2021/05/29 02:38:12;;;;;;;5.45;5.05;;;11.70;99.90;;;;;;4995419;28;20198;-66
2021/05/29 02:40:39;;;;;;;9.23;5.18;;;11.60;99.90;;;;;;4995059;28;20226;-65
2021/05/29 02:43:05;;;;;;;5.57;4.95;;;11.50;99.90;;;;;;4994028;28;20235;-66
2021/05/29 02:45:34;;;;;;;6.15;5.55;;;11.50;99.90;;;;;;4995008;28;20325;-66
2021/05/29 02:48:00;;;;;;;5.60;4.93;;;11.50;99.90;;;;;;4994850;28;20280;-65
2021/05/29 02:50:27;;;;;;;6.45;5.82;;;11.40;99.90;;;;;;4995067;28;20198;-66
2021/05/29 02:52:53;;;;;;;5.22;4.82;;;11.40;99.90;;;;;;4994853;28;20211;-66
2021/05/29 02:55:23;;;;;;;6.10;5.50;;;11.40;99.90;;;;;;4994975;28;20248;-66
2021/05/29 02:57:51;;;;;;;6.05;4.93;;;11.30;99.90;;;;;;4995282;28;20221;-66
2021/05/29 03:00:19;;;;;;;5.75;5.25;;;11.20;99.90;;;;;;4994727;28;20213;-65
2021/05/29 03:02:45;;;;;;;8.73;5.85;;;11.20;99.90;;;;;;4994609;28;20206;-65
2021/05/29 03:05:12;;;;;;;6.25;5.65;;;11.20;99.90;;;;;;4994252;28;20570;-65
2021/05/29 03:07:39;;;;;;;6.63;6.03;;;11.10;99.90;;;;;;4994410;28;20195;-65
2021/05/29 03:10:07;;;;;;;6.25;5.68;;;11.00;99.90;;;;;;4994191;28;20224;-65
2021/05/29 03:12:36;;;;;;;9.98;6.93;;;11.00;99.90;;;;;;4994256;28;20191;-65
2021/05/29 03:15:05;;;;;;;6.65;6.00;;;11.00;99.90;;;;;;4994261;28;20201;-65
2021/05/29 03:17:31;;;;;;;6.25;5.70;;;10.90;99.90;;;;;;4994443;28;20211;-65
2021/05/29 03:19:58;;;;;;;6.40;5.80;;;10.90;99.90;;;;;;4994911;28;20209;-65
2021/05/29 03:22:24;;;;;;;6.63;5.90;;;10.80;99.90;;;;;;4994773;28;20199;-65
2021/05/29 03:24:51;;;;;;;6.55;5.95;;;10.80;99.90;;;;;;4994720;28;20218;-65
2021/05/29 03:27:18;;;;;;;6.43;5.10;;;10.80;99.90;;;;;;4994487;28;20201;-65
2021/05/29 03:29:47;;;;;;;6.80;6.10;;;10.80;99.90;;;;;;4994707;28;20210;-65
2021/05/29 03:32:14;;;;;;;6.70;6.10;;;10.70;99.90;;;;;;4993601;28;20224;-65
2021/05/29 03:34:41;;;;;;;6.47;5.72;;;10.60;99.90;;;;;;4994630;28;20205;-65
2021/05/29 03:37:08;;;;;;;5.65;5.25;;;10.60;99.90;;;;;;4994597;28;20241;-65
2021/05/29 03:39:36;;;;;;;5.82;5.32;;;10.60;99.90;;;;;;4995119;28;20650;-65
2021/05/29 03:42:03;;;;;;;6.55;5.90;;;10.50;99.90;;;;;;4994582;28;20211;-65
2021/05/29 03:44:30;;;;;;;6.30;5.78;;;10.50;99.90;;;;;;4994449;28;20321;-65
2021/05/29 03:46:56;;;;;;;6.15;5.65;;;10.40;99.90;;;;;;4994372;28;20221;-65
2021/05/29 03:49:22;;;;;;;6.47;5.97;;;10.40;99.90;;;;;;4994680;28;20198;-65
2021/05/29 03:51:49;;;;;;;6.30;5.57;;;10.30;99.90;;;;;;4994138;28;20213;-65
2021/05/29 03:54:15;;;;;;;7.35;5.18;;;10.30;99.90;;;;;;4993994;28;20210;-65
2021/05/29 03:56:42;;;;;;;5.75;5.25;;;10.30;99.90;;;;;;4994323;28;20561;-65
2021/05/29 03:59:13;;;;;;;6.57;6.03;;;10.20;99.90;;;;;;4994040;28;20235;-65
2021/05/29 04:01:41;;;;;;;5.80;5.35;;;10.20;99.90;;;;;;4992788;28;20202;-65
2021/05/29 04:04:08;;;;;;;5.30;4.80;;;10.20;99.90;;;;;;4993974;28;20301;-65
2021/05/29 04:06:35;;;;;;;5.55;5.10;;;10.10;99.90;;;;;;4994267;28;20198;-65
2021/05/29 04:09:07;;;;;;;5.63;5.13;;;10.20;99.90;;;;;;4994070;28;20209;-65
2021/05/29 04:11:35;;;;;;;5.60;5.20;;;10.30;99.90;;;;;;4994140;28;20186;-65
2021/05/29 04:14:02;;;;;;;6.18;5.35;;;10.30;99.90;;;;;;4994243;28;20206;-65
2021/05/29 04:16:29;;;;;;;5.80;5.22;;;10.30;99.90;;;;;;4994228;28;20201;-65
2021/05/29 04:18:56;;;;;;;5.40;4.90;;;10.30;99.90;;;;;;4993868;28;20194;-65
2021/05/29 04:21:22;;;;;;;5.45;5.05;;;10.30;99.90;;;;;;4993951;28;20277;-65
2021/05/29 04:23:48;;;;;;;5.88;5.38;;;10.30;99.90;;;;;;4993882;28;20190;-65
2021/05/29 04:26:15;;;;;;;6.15;5.55;;;10.30;99.90;;;;;;4994093;28;20199;-65
2021/05/29 04:28:42;;;;;;;8.13;6.10;;;10.30;99.90;;;;;;4994165;28;20199;-65
2021/05/29 04:31:08;;;;;;;7.55;5.22;;;10.50;99.90;;;;;;4992394;28;20202;-65
2021/05/29 04:33:34;;;;;;;7.38;6.53;;;10.50;99.90;;;;;;4994389;28;20210;-65
2021/05/29 04:36:01;;;;;;;9.25;5.68;;;10.60;99.90;;;;;;4993587;28;20297;-65
2021/05/29 04:38:27;;;;;;;6.05;5.40;;;10.70;99.90;;;;;;4993540;28;20293;-65
2021/05/29 04:40:54;;;;;;;5.53;5.13;;;10.60;99.90;;;;;;4993668;28;20219;-65
2021/05/29 04:43:20;;;;;;;5.18;4.78;;;10.70;99.90;;;;;;4993377;28;20240;-65
2021/05/29 04:45:48;;;;;;;6.68;5.00;;;10.80;99.90;;;;;;4993621;28;20211;-65
2021/05/29 04:48:17;;;;;;;5.28;4.78;;;10.80;99.90;;;;;;4993387;28;20207;-65
2021/05/29 04:53:29;;;;;;;4.60;4.15;;;11.00;99.90;;;;;;4993952;28;20179;-64
2021/05/29 04:55:58;;;;;;;4.70;4.30;;;11.00;99.90;;;;;;4976622;28;20253;-65
2021/05/29 04:58:25;;;;;;;15.48;5.28;;;11.10;99.90;;;;;;4993726;28;20686;-65
2021/05/29 05:00:52;;;;;;;6.68;4.22;;;11.10;99.90;;;;;;4993607;28;20602;-65
2021/05/29 05:03:18;;;;;;;5.30;4.80;;;11.20;99.90;;;;;;4993646;28;20603;-65
2021/05/29 05:05:45;;;;;;;4.53;4.22;;;11.20;99.90;;;;;;4993869;28;20576;-65
2021/05/29 05:08:11;;;;;;;4.28;3.70;;;11.40;99.90;;;;;;4997060;28;20201;-65
2021/05/29 05:10:38;;;;;;;5.80;4.88;;;11.50;99.90;;;;;;4997028;28;20641;-65
2021/05/29 05:13:04;;;;;;;4.03;3.60;;;11.60;99.90;;;;;;4996874;28;20211;-65
2021/05/29 05:15:31;;;;;;;7.75;4.78;;;11.70;99.90;;;;;;4996755;28;20281;-65
2021/05/29 05:17:57;;;;;;;4.35;4.05;;;11.70;99.90;;;;;;4995524;28;20195;-65
2021/05/29 05:20:24;;;;;;;6.03;4.03;;;11.80;99.90;;;;;;4996514;28;20317;-65
2021/05/29 05:22:50;;;;;;;5.45;3.78;;;11.90;99.90;;;;;;4996310;28;20574;-65
2021/05/29 05:25:17;;;;;;;4.20;3.90;;;11.90;99.90;;;;;;4996674;28;20587;-65
2021/05/29 05:27:44;;;;;;;18.30;5.53;;;12.00;99.90;;;;;;4996991;28;20203;-65
2021/05/29 05:30:13;;;;;;;3.60;3.30;;;12.20;99.90;;;;;;4996836;28;20191;-65
2021/05/29 05:32:42;;;;;;;3.72;3.42;;;12.40;99.90;;;;;;4996451;28;20191;-65
2021/05/29 05:35:13;;;;;;;6.03;4.05;;;12.40;99.90;;;;;;4996536;28;20564;-65
2021/05/29 05:37:40;;;;;;;5.03;3.75;;;12.40;99.90;;;;;;4996554;28;20211;-65
2021/05/29 05:40:07;;;;;;;4.63;4.22;;;12.40;99.90;;;;;;4995151;28;20769;-65
2021/05/29 05:42:34;;;;;;;4.25;3.90;;;12.60;98.30;;;;;;4996386;28;20209;-65
2021/05/29 05:45:00;;;;;;;3.75;3.45;;;12.80;90.00;;;;;;4996515;28;20214;-65
2021/05/29 05:47:27;;;;;;;7.05;4.38;;;12.90;74.70;;;;;;4996528;28;20206;-65
2021/05/29 05:49:53;;;;;;;4.75;3.83;;;13.00;68.50;;;;;;4996586;28;20647;-65
2021/05/29 05:52:19;;;;;;;13.52;4.60;;;13.10;50.60;;;;;;4996220;28;20199;-65
2021/05/29 05:54:45;;;;;;;4.35;3.70;;;13.30;53.20;;;;;;4996188;28;20240;-65
2021/05/29 05:57:13;;;;;;;3.78;3.45;;;13.30;57.10;;;;;;4996536;28;20225;-65
2021/05/29 05:59:40;;;;;;;7.80;3.83;;;13.30;36.60;;;;;;4996587;28;20653;-65
2021/05/29 06:02:07;;;;;;;3.17;2.90;;;13.50;27.60;;;;;;4996428;28;20201;-65
2021/05/29 06:04:34;;;;;;;8.60;3.60;;;13.60;30.70;;;;;;4996171;28;20276;-65
2021/05/29 06:07:00;;;;;;;3.13;2.72;;;13.60;11.90;;;;;;4996323;28;20217;-65
2021/05/29 06:09:28;;;;;;;3.60;3.40;;;13.60;1.00;;;;;;4995377;28;20197;-65
2021/05/29 06:11:55;;;;;;;3.35;3.05;;;13.50;15.40;;;;;;4995049;28;20214;-65
2021/05/29 06:19:51;;;;;;;3.70;3.50;;;13.80;4.20;;;;;;4996223;28;20178;-65
2021/05/29 06:22:17;;;;;;;3.70;3.28;;;13.80;17.20;;;;;;4996251;28;20626;-65
2021/05/29 06:24:44;;;;;;;3.88;3.50;;;14.00;1.00;;;;;;4995810;28;20222;-65
2021/05/29 06:27:11;;;;;;;3.35;3.05;;;13.90;1.00;;;;;;4979148;28;20198;-65
2021/05/29 06:29:37;;;;;;;4.22;3.03;;;14.00;1.00;;;;;;4994824;28;20217;-65
2021/05/29 06:32:04;;;;;;;5.63;3.65;;;13.90;1.00;;;;;;4995139;28;20199;-65
2021/05/29 06:34:30;;;;;;;3.03;2.83;;;14.10;1.00;;;;;;4995557;28;20205;-65
2021/05/29 06:36:57;;;;;;;10.07;3.63;;;14.30;1.00;;;;;;4993946;28;20190;-66
2021/05/29 06:39:23;;;;;;;4.33;3.43;;;14.30;1.00;;;;;;4979853;28;21142;-65
2021/05/29 06:41:50;;;;;;;4.87;3.43;;;14.50;1.00;;;;;;4994911;28;20645;-65
2021/05/29 06:44:16;;;;;;;3.50;3.20;;;14.70;13.70;;;;;;4994677;28;20654;-65
2021/05/29 06:46:43;;;;;;;3.63;3.33;;;14.60;1.00;;;;;;4995061;28;20588;-65
2021/05/29 06:49:09;;;;;;;3.37;3.07;;;14.60;10.70;;;;;;4994699;28;20601;-65
2021/05/29 06:52:02;;;;;;;3.53;3.27;;;14.80;7.20;;;;;;4994754;28;20625;-66
2021/05/29 06:54:55;;;;;;;4.83;3.63;;;14.90;17.30;;;;;;4994323;28;20641;-66
2021/05/29 06:59:56;;;;;;;4.40;3.20;;;15.00;7.90;;;;;;4982339;28;20586;-65
2021/05/29 07:02:22;;;;;;;4.03;3.50;;;14.90;22.70;;;;;;4994734;28;20646;-65
2021/05/29 07:04:51;;;;;;;3.80;3.50;;;15.30;72.40;;;;;;4994360;28;20638;-65
2021/05/29 07:07:18;;;;;;;3.23;3.03;;;15.20;19.60;;;;;;4994616;28;20652;-65
2021/05/29 07:09:45;;;;;;;3.70;3.40;;;15.40;2.50;;;;;;4994289;28;20637;-65
2021/05/29 07:12:11;;;;;;;3.83;3.07;;;15.60;29.40;;;;;;4994403;28;20989;-65
2021/05/29 07:14:37;;;;;;;3.47;3.17;;;15.80;99.90;;;;;;4993976;28;20621;-65
2021/05/29 07:17:06;;;;;;;3.43;3.13;;;15.80;99.90;;;;;;4994790;28;20632;-65
2021/05/29 07:19:33;;;;;;;4.03;3.30;;;15.60;99.90;;;;;;4994737;28;20625;-65
2021/05/29 07:21:59;;;;;;;4.33;3.07;;;15.30;71.70;;;;;;4994584;28;20628;-65
2021/05/29 07:24:26;;;;;;;3.17;2.83;;;15.40;48.60;;;;;;4994275;28;20990;-65
2021/05/29 07:26:53;;;;;;;3.70;3.40;;;15.50;98.80;;;;;;4994172;28;20620;-65
2021/05/29 07:29:20;;;;;;;3.37;3.10;;;15.60;99.30;;;;;;4994183;28;21119;-65
2021/05/29 07:31:46;;;;;;;4.40;3.10;;;15.80;99.90;;;;;;4993249;28;20613;-65
2021/05/29 07:34:13;;;;;;;5.03;3.10;;;16.00;99.90;;;;;;4994370;28;20594;-65
2021/05/29 07:36:41;;;;;;;6.50;3.40;;;16.00;99.90;;;;;;4994323;28;21200;-65
2021/05/29 07:39:09;;;;;;;2.77;2.60;;;16.20;99.90;;;;;;4994223;28;20569;-65
2021/05/29 07:41:36;;;;;;;6.20;4.27;;;16.40;99.90;;;;;;4994069;28;20636;-65
2021/05/29 07:44:04;;;;;;;3.70;3.37;;;16.40;99.90;;;;;;4994090;28;20668;-64
2021/05/29 07:46:31;;;;;;;3.70;3.07;;;16.50;99.90;;;;;;4994722;28;20665;-65
2021/05/29 07:48:58;;;;;;;3.03;2.83;;;16.60;99.90;;;;;;4992633;28;20624;-65
2021/05/29 07:51:24;;;;;;;2.77;2.60;;;17.00;99.90;;;;;;4994386;28;20626;-65
2021/05/29 07:53:50;;;;;;;10.17;3.93;;;16.70;99.90;;;;;;4994479;28;20604;-65
2021/05/29 07:56:19;;;;;;;5.37;3.10;;;16.70;99.90;;;;;;4993016;28;20726;-65
2021/05/29 07:58:48;;;;;;;3.70;3.10;;;16.90;99.90;;;;;;4994517;28;20610;-64
2021/05/29 08:01:15;;;;;;;2.70;2.50;;;17.00;99.90;;;;;;4993939;28;20628;-64
2021/05/29 08:03:42;;;;;;;4.40;3.07;;;17.20;99.90;;;;;;4994356;28;20597;-65
2021/05/29 08:06:20;;;;;;;5.87;5.47;;;17.20;99.90;;;;;;4994206;28;20764;-65
2021/05/29 08:08:46;;;;;;;6.80;3.17;;;17.00;99.90;;;;;;4993159;28;20661;-64
2021/05/29 08:11:24;;;;;;;6.20;3.47;;;17.00;99.90;;;;;;4994097;28;20630;-65
2021/05/29 08:13:52;;;;;;;2.83;2.57;;;17.30;99.90;;;;;;4993689;28;20613;-64
2021/05/29 08:16:21;;;;;;;3.27;3.00;;;17.40;99.90;;;;;;4994377;28;20626;-65
2021/05/29 08:18:48;;;;;;;2.80;2.47;;;17.60;99.90;;;;;;4994184;28;20636;-65
2021/05/29 08:21:15;;;;;;;3.07;2.80;;;17.50;99.90;;;;;;4992646;28;20613;-65
2021/05/29 08:23:41;;;;;;;5.37;3.40;;;17.60;99.90;;;;;;4994648;28;20582;-66
2021/05/29 08:26:08;;;;;;;3.20;2.40;;;17.70;99.90;;;;;;4976791;28;20657;-65
2021/05/29 08:28:35;;;;;;;3.03;2.80;;;17.70;99.90;;;;;;4992540;28;20630;-66
2021/05/29 08:31:02;;;;;;;3.10;2.90;;;17.60;99.90;;;;;;4994296;28;20632;-65
2021/05/29 08:33:28;;;;;;;2.87;2.67;;;17.70;99.90;;;;;;4993936;28;20636;-65
2021/05/29 08:35:55;;;;;;;8.70;2.73;;;17.90;99.90;;;;;;4994008;28;20630;-65
2021/05/29 08:38:21;;;;;;;3.80;2.60;;;18.10;99.90;;;;;;4994404;28;20618;-68
2021/05/29 08:40:48;;;;;;;5.20;2.80;;;18.10;99.90;;;;;;4994840;28;20749;-66
2021/05/29 08:43:14;;;;;;;2.50;2.30;;;18.20;99.90;;;;;;4997588;28;20648;-65
2021/05/29 08:45:41;;;;;;;2.60;2.50;;;18.30;99.90;;;;;;4997402;28;20740;-65
2021/05/29 08:48:08;;;;;;;7.33;2.90;;;18.30;99.90;;;;;;4996375;28;20609;-65
2021/05/29 08:50:34;;;;;;;3.20;3.00;;;18.60;99.90;;;;;;4997142;28;20728;-65
2021/05/29 08:53:00;;;;;;;2.70;2.47;;;18.90;99.90;;;;;;4997263;28;20688;-65
2021/05/29 08:55:27;;;;;;;2.43;2.33;;;18.90;99.90;;;;;;4997472;28;20625;-66
2021/05/29 08:57:53;;;;;;;3.30;2.43;;;18.80;99.90;;;;;;4997211;28;20737;-65
2021/05/29 09:00:26;;;;;;;3.10;2.40;;;19.00;99.90;;;;;;4996942;28;20610;-65
2021/05/29 09:03:19;;;;;;;2.10;2.00;;;19.10;99.90;;;;;;4996935;28;20629;-65
2021/05/29 09:05:52;;;;;;;2.40;2.30;;;19.10;99.90;;;;;;4973973;28;20670;-65
2021/05/29 09:08:21;;;;;;;3.73;2.60;;;18.90;99.90;;;;;;4993213;28;20942;-65
2021/05/29 09:10:52;;;;;;;2.80;2.60;;;18.80;99.90;;;;;;4996674;28;20617;-65
2021/05/29 09:13:23;;;;;;;5.33;1.90;;;19.00;99.90;;;;;;4996363;28;21140;-65
2021/05/29 09:16:05;;;;;;;1.90;1.80;;;19.10;99.90;;;;;;4996498;28;20636;-65
2021/05/29 09:18:36;;;;;;;3.37;2.00;;;19.10;99.90;;;;;;4996545;28;20622;-65
2021/05/29 09:21:21;;;;;;;3.83;2.10;;;19.10;99.90;;;;;;5004032;28;21231;-65
2021/05/29 09:24:13;;;;;;;2.33;2.10;;;19.30;99.90;;;;;;4999894;28;20617;-65
2021/05/29 09:26:57;;;;;;;1.67;1.57;;;19.20;99.90;;;;;;4984493;28;20618;-63
2021/05/29 09:29:29;;;;;;;3.73;2.20;;;19.60;99.90;;;;;;4996641;28;21183;-65
2021/05/29 09:32:02;;;;;;;2.00;1.90;;;19.60;99.90;;;;;;4996327;28;20621;-65
2021/05/29 09:34:42;;;;;;;2.37;1.70;;;19.70;99.90;;;;;;4996140;28;20677;-66
2021/05/29 09:37:14;;;;;;;1.90;1.80;;;19.60;99.90;;;;;;4995978;28;20624;-64
2021/05/29 09:39:46;;;;;;;3.03;2.30;;;19.60;99.90;;;;;;4995141;28;20714;-65
2021/05/29 09:42:17;;;;;;;1.90;1.80;;;19.70;99.90;;;;;;4996215;28;20581;-65
2021/05/29 09:44:44;;;;;;;1.80;1.70;;;20.00;99.90;;;;;;4994340;28;21020;-65
2021/05/29 09:47:16;;;;;;;2.57;1.90;;;19.80;99.90;;;;;;4994782;28;21155;-65
2021/05/29 09:49:51;;;;;;;1.60;1.47;;;19.80;99.90;;;;;;4995866;28;20728;-65
2021/05/29 09:52:48;;;;;;;1.93;1.73;;;20.00;99.90;;;;;;4995730;28;20621;-65
2021/05/29 09:55:14;;;;;;;3.33;1.70;;;20.00;99.90;;;;;;4991281;28;20629;-65
2021/05/29 09:57:58;;;;;;;4.17;2.40;;;20.00;99.90;;;;;;4994317;28;20632;-65
2021/05/29 10:00:44;;;;;;;4.53;2.53;;;20.10;99.90;;;;;;4995716;28;20625;-64
2021/05/29 10:03:12;;;;;;;2.70;2.40;;;20.00;99.90;;;;;;4995176;28;20626;-65
2021/05/29 10:05:42;;;;;;;4.60;2.50;;;19.80;99.90;;;;;;4995535;28;20675;-65
2021/05/29 10:08:13;;;;;;;2.47;2.27;;;20.00;99.90;;;;;;4995128;28;20632;-65
2021/05/29 10:10:39;;;;;;;2.77;2.20;;;20.20;99.90;;;;;;4995343;28;20636;-63
2021/05/29 10:13:06;;;;;;;3.30;2.50;;;20.30;99.90;;;;;;4995229;28;20622;-66
2021/05/29 10:15:33;;;;;;;2.70;2.50;;;20.20;99.90;;;;;;4995789;28;20677;-66
2021/05/29 10:18:02;;;;;;;2.70;2.50;;;20.60;99.90;;;;;;4995582;28;21151;-64
2021/05/29 10:20:32;;;;;;;3.70;2.10;;;20.80;99.90;;;;;;4995478;28;20629;-64
2021/05/29 10:23:00;;;;;;;2.20;2.00;;;20.60;99.90;;;;;;4995517;28;20610;-64
2021/05/29 10:25:26;;;;;;;3.00;2.70;;;20.60;99.90;;;;;;4995504;28;20658;-64
2021/05/29 10:27:56;;;;;;;4.30;2.00;;;20.60;99.90;;;;;;4995500;28;20597;-64
2021/05/29 10:30:24;;;;;;;2.63;2.10;;;20.50;99.90;;;;;;4995446;28;20971;-64
2021/05/29 10:33:14;;;;;;;2.83;1.80;;;20.30;99.90;;;;;;4995495;28;20617;-64
2021/05/29 10:35:45;;;;;;;2.40;2.20;;;20.50;99.90;;;;;;4995484;28;20629;-65
2021/05/29 10:38:13;;;;;;;2.33;2.07;;;20.50;99.90;;;;;;4995627;28;20626;-65
2021/05/29 10:40:47;;;;;;;6.60;4.17;;;20.80;99.90;;;;;;4995227;28;20634;-65
2021/05/29 10:43:21;;;;;;;1.70;1.60;;;20.50;99.90;;;;;;4995326;28;20651;-65
2021/05/29 10:45:50;;;;;;;2.63;1.90;;;20.90;99.90;;;;;;4995229;28;20598;-65
2021/05/29 10:48:27;;;;;;;3.70;1.90;;;20.50;99.90;;;;;;4995263;28;20608;-65
2021/05/29 10:51:05;;;;;;;7.50;2.47;;;20.60;99.90;;;;;;4995205;28;20647;-65
2021/05/29 10:53:54;;;;;;;2.43;2.30;;;20.40;99.90;;;;;;4995212;28;21140;-64
2021/05/29 10:56:20;;;;;;;1.60;1.50;;;20.60;99.90;;;;;;4993767;28;20625;-65
2021/05/29 10:58:59;;;;;;;3.00;1.60;;;21.00;99.90;;;;;;4995098;28;20614;-65
2021/05/29 11:01:39;;;;;;;2.00;1.90;;;21.30;99.90;;;;;;4995393;28;20590;-65
2021/05/29 11:04:15;;;;;;;2.27;1.97;;;21.50;99.90;;;;;;4994148;28;20570;-65
2021/05/29 11:06:44;;;;;;;3.43;2.10;;;21.30;99.90;;;;;;4995147;28;20644;-65
2021/05/29 11:09:12;;;;;;;2.40;1.90;;;21.10;99.90;;;;;;4993672;28;20630;-65
2021/05/29 11:14:11;;;;;;;3.67;1.43;;;21.40;99.90;;;;;;4994671;28;20606;-65
2021/05/29 11:16:57;;;;;;;2.23;1.93;;;21.70;99.90;;;;;;4994882;28;20630;-65
2021/05/29 11:19:31;;;;;;;2.03;1.80;;;21.70;99.90;;;;;;4994886;28;20554;-65
2021/05/29 11:21:59;;;;;;;5.47;1.70;;;22.40;99.90;;;;;;4994495;28;20621;-65
2021/05/29 11:24:38;;;;;;;1.70;1.60;;;22.60;99.90;;;;;;4994877;28;20616;-65
2021/05/29 11:27:07;;;;;;;1.63;1.50;;;23.20;99.90;;;;;;4994458;28;20683;-65
2021/05/29 11:29:56;;;;;;;3.20;1.70;;;23.60;99.90;;;;;;4994656;28;20610;-64
2021/05/29 11:35:37;;;;;;;3.70;1.33;;;23.80;99.90;;;;;;4918841;29;20687;-65
2021/05/29 11:38:15;;;;;;;1.90;1.70;;;23.60;99.90;;;;;;4987795;28;20626;-64
2021/05/29 11:40:51;;;;;;;2.07;1.47;;;24.00;99.90;;;;;;4994615;28;20700;-65
2021/05/29 11:43:42;;;;;;;1.50;1.40;;;23.90;99.90;;;;;;4994495;28;20633;-65
2021/05/29 11:46:10;;;;;;;1.57;1.47;;;24.00;99.90;;;;;;4993125;28;20699;-65
2021/05/29 11:48:41;;;;;;;2.00;1.70;;;24.00;99.90;;;;;;4994409;28;20602;-64
2021/05/29 11:51:13;;;;;;;2.40;1.33;;;24.50;99.90;;;;;;4993967;28;20648;-64
2021/05/29 11:53:45;;;;;;;1.90;1.80;;;23.80;99.90;;;;;;4994314;28;20576;-65
2021/05/29 11:56:18;;;;;;;2.77;1.30;;;24.00;99.90;;;;;;4994606;28;21138;-65
2021/05/29 11:58:48;;;;;;;3.37;1.30;;;24.00;99.90;;;;;;4994257;28;20618;-65
2021/05/29 12:01:17;;;;;;;2.40;1.40;;;24.20;99.90;;;;;;4994182;28;20636;-64
2021/05/29 12:03:47;;;;;;;1.47;1.37;;;23.80;99.90;;;;;;4994015;28;20629;-66
2021/05/29 12:06:37;;;;;;;1.73;1.10;;;22.80;99.90;;;;;;4994349;28;21018;-65
2021/05/29 12:09:08;;;;;;;1.30;1.20;;;23.50;99.90;;;;;;4994001;28;21160;-64
2021/05/29 12:11:36;;;;;;;6.43;1.50;;;24.20;99.90;;;;;;4994260;28;20628;-65
2021/05/29 12:14:06;;;;;;;1.00;0.90;;;24.60;99.90;;;;;;4977394;28;20634;-65
2021/05/29 12:16:35;;;;;;;2.70;1.70;;;25.10;99.90;;;;;;4998025;28;20681;-65
2021/05/29 12:19:02;;;;;;;1.43;1.23;;;24.30;99.90;;;;;;4998427;28;20661;-65
2021/05/29 12:21:55;;;;;;;1.27;1.17;;;23.70;99.90;;;;;;4998484;28;20634;-65
2021/05/29 12:24:23;;;;;;;1.73;1.53;;;23.90;99.90;;;;;;4998100;28;20626;-66
2021/05/29 12:26:51;;;;;;;2.77;1.80;;;24.70;99.90;;;;;;4998268;28;20684;-66
2021/05/29 12:29:23;;;;;;;1.37;1.10;;;25.00;99.90;;;;;;4997386;28;20628;-66
2021/05/29 12:31:54;;;;;;;1.37;1.20;;;25.80;99.90;;;;;;4997935;28;20570;-65
2021/05/29 12:34:22;;;;;;;2.40;1.40;;;26.00;99.90;;;;;;4998152;28;20564;-65
2021/05/29 12:37:06;;;;;;;1.43;1.33;;;25.30;99.90;;;;;;4997880;28;20629;-66
2021/05/29 12:39:49;;;;;;;1.87;1.20;;;25.50;99.90;;;;;;4998056;28;20636;-65
2021/05/29 12:42:35;;;;;;;1.30;1.20;;;25.10;99.90;;;;;;4996407;28;20720;-65
2021/05/29 12:45:24;;;;;;;1.30;1.17;;;25.50;99.90;;;;;;4997836;28;20658;-66
2021/05/29 12:47:59;;;;;;;2.60;1.20;;;26.10;99.90;;;;;;4997492;28;20622;-66
2021/05/29 12:50:38;;;;;;;2.23;1.20;;;26.30;99.90;;;;;;4997599;28;20605;-66
2021/05/29 12:53:16;;;;;;;1.73;1.57;;;25.50;99.90;;;;;;4997564;28;20631;-65
2021/05/29 12:55:44;;;;;;;1.50;1.40;;;25.50;99.90;;;;;;4997176;28;20647;-65
2021/05/29 12:58:23;;;;;;;1.10;0.97;;;25.60;99.90;;;;;;4997445;28;20594;-65
2021/05/29 13:01:26;;;;;;;1.00;1.00;;;25.90;99.90;;;;;;4997416;28;20571;-65
2021/05/29 13:09:40;;;;;;;1.30;1.20;;;24.90;99.90;;;;;;4997546;28;20705;-66
2021/05/29 13:12:17;;;;;;;1.97;1.30;;;25.70;99.90;;;;;;4996955;28;20632;-66
2021/05/29 13:14:44;;;;;;;2.97;1.30;;;25.80;99.90;;;;;;4997280;28;20561;-66
2021/05/29 13:17:32;;;;;;;2.90;1.23;;;26.70;99.90;;;;;;4997514;28;20613;-65
2021/05/29 13:20:06;;;;;;;1.17;1.07;;;26.90;99.90;;;;;;4996929;28;20629;-68
2021/05/29 13:22:40;;;;;;;1.50;1.00;;;26.40;99.90;;;;;;4996924;28;20710;-66